Praha, Texas
Current Conditions -  °F | °C
As of 11:35 AM on Sunday 23 Nov 2014 (Local Time) from K3T5 Reporting Station
Clear Clear  
Wind Chill: 24°   Ceiling: Unl
Heat Index: 24°   Visibility: 10mi
Dew Point: 13°   Wind: 9mph
Humidity: 52%   Direction: 230°SW
Pressure: 29.62"   Gusts: NA
Location:  29.7626°N, 97.1228°W
Report Text: K3T5 231735Z AUTO 23008KT 10SM CLR 24/13 A2962 RMK AO2 T02350132
Loading
Personal Weather Stations






























Interactive Weather Map New forecast layout! Learn more

10-Day Weather Forecast

Advertisements
Track Severe Weather on mobile